Time;durP1;ratioP1;P1;durP2;ratioP2;P2;SDS_P1;SDS_P2;PMS_P1;PMS_P2;Temp;Humidity;BMP_temperature;BMP_pressure;BME280_temperature;BME280_humidity;BME280_pressure;Samples;Min_cycle;Max_cycle;Signal;HPM_P1;HPM_P2
2023/05/29 00:00:28;;;;;;;;;;;;;;;;;;1907857;28;7228;-65
2023/05/29 00:01:26;;;;;;;;;;;;;;;;;;1906645;28;7005;-62
2023/05/29 00:02:24;;;;;;;;;;;;;;;;;;1907849;28;7006;-63
2023/05/29 00:03:21;;;;;;;;;;;;;;;;;;1911201;28;7005;-65
2023/05/29 00:04:21;;;;;;;;;;;;;;;;;;1910679;28;7134;-63
2023/05/29 00:05:19;;;;;;;;;;;;;;;;;;1910666;28;7021;-63
2023/05/29 00:06:16;;;;;;;;;;;;;;;;;;1910461;28;7096;-65
2023/05/29 00:07:16;;;;;;;;;;;;;;;;;;1906084;28;7092;-64
2023/05/29 00:08:14;;;;;;;;;;;;;;;;;;1908592;28;7037;-62
2023/05/29 00:09:11;;;;;;;;;;;;;;;;;;1911879;28;7414;-66
2023/05/29 00:10:10;;;;;;;;;;;;;;;;;;1907328;28;7085;-67
2023/05/29 00:11:08;;;;;;;;;;;;;;;;;;1906150;28;7042;-63
2023/05/29 00:12:05;;;;;;;;;;;;;;;;;;1911655;28;8039;-65
2023/05/29 00:13:03;;;;;;;;;;;;;;;;;;1912973;28;7113;-64
2023/05/29 00:14:02;;;;;;;;;;;;;;;;;;1908032;28;7006;-64
2023/05/29 00:15:00;;;;;;;;;;;;;;;;;;1909967;28;7030;-62
2023/05/29 00:15:59;;;;;;;;;;;;;;;;;;1906646;28;7113;-62
2023/05/29 00:16:56;;;;;;;;;;;;;;;;;;1906967;28;7092;-65
2023/05/29 00:17:55;;;;;;;;;;;;;;;;;;1906436;28;7002;-64
2023/05/29 00:18:53;;;;;;;;;;;;;;;;;;1907024;28;8039;-64
2023/05/29 00:19:51;;;;;;;;;;;;;;;;;;1910886;28;7115;-63
2023/05/29 00:20:48;;;;;;;;;;;;;;;;;;1908236;28;8050;-64
2023/05/29 00:21:48;;;;;;;;;;;;;;;;;;1908649;28;7092;-64
2023/05/29 00:22:46;;;;;;;;;;;;;;;;;;1913628;28;7272;-63
2023/05/29 00:23:43;;;;;;;;;;;;;;;;;;1910129;28;7088;-64
2023/05/29 00:24:42;;;;;;;;;;;;;;;;;;1907094;28;7010;-63
2023/05/29 00:25:40;;;;;;;;;;;;;;;;;;1905210;28;7009;-64
2023/05/29 00:26:37;;;;;;;;;;;;;;;;;;1906796;28;7135;-65
2023/05/29 00:27:35;;;;;;;;;;;;;;;;;;1908441;28;7002;-65
2023/05/29 00:28:32;;;;;;;;;;;;;;;;;;1906586;28;7009;-64
2023/05/29 00:29:30;;;;;;;;;;;;;;;;;;1906705;28;8111;-64
2023/05/29 00:30:28;;;;;;;;;;;;;;;;;;1910040;28;7033;-63
2023/05/29 00:31:25;;;;;;;;;;;;;;;;;;1911052;28;7088;-63
2023/05/29 00:32:23;;;;;;;;;;;;;;;;;;1911683;28;7005;-65
2023/05/29 00:33:20;;;;;;;;;;;;;;;;;;1910591;28;7092;-65
2023/05/29 00:34:18;;;;;;;;;;;;;;;;;;1908221;28;7134;-63
2023/05/29 00:35:15;;;;;;;;;;;;;;;;;;1912125;28;7005;-64
2023/05/29 00:36:12;;;;;;;;;;;;;;;;;;1907675;28;7046;-63
2023/05/29 00:37:10;;;;;;;;;;;;;;;;;;1910452;28;7005;-63
2023/05/29 00:38:07;;;;;;;;;;;;;;;;;;1905764;28;7005;-63
2023/05/29 00:39:05;;;;;;;;;;;;;;;;;;1909036;28;7356;-63
2023/05/29 00:40:03;;;;;;;;;;;;;;;;;;1907558;28;7116;-63
2023/05/29 00:41:02;;;;;;;;;;;;;;;;;;1905018;28;7029;-64
2023/05/29 00:42:00;;;;;;;;;;;;;;;;;;1908495;28;7088;-65
2023/05/29 00:42:57;;;;;;;;;;;;;;;;;;1910250;28;7084;-64
2023/05/29 00:43:54;;;;;;;;;;;;;;;;;;1909623;28;7088;-64
2023/05/29 00:44:52;;;;;;;;;;;;;;;;;;1912515;28;7124;-65
2023/05/29 00:45:49;;;;;;;;;;;;;;;;;;1907690;28;7042;-66
2023/05/29 00:46:48;;;;;;;;;;;;;;;;;;1910409;28;7002;-64
2023/05/29 00:47:46;;;;;;;;;;;;;;;;;;1904949;28;7005;-64
2023/05/29 00:48:43;;;;;;;;;;;;;;;;;;1911368;28;7042;-65
2023/05/29 00:49:41;;;;;;;;;;;;;;;;;;1907931;28;7484;-64
2023/05/29 00:50:40;;;;;;;;;;;;;;;;;;1906598;28;7092;-63
2023/05/29 00:51:38;;;;;;;;;;;;;;;;;;1904990;28;7037;-63
2023/05/29 00:52:37;;;;;;;;;;;;;;;;;;1905695;28;7014;-65
2023/05/29 00:53:35;;;;;;;;;;;;;;;;;;1905350;28;7092;-64
2023/05/29 00:54:33;;;;;;;;;;;;;;;;;;1911334;28;7089;-66
2023/05/29 00:55:31;;;;;;;;;;;;;;;;;;1907698;28;8000;-65
2023/05/29 00:56:28;;;;;;;;;;;;;;;;;;1908493;28;8047;-64
2023/05/29 00:57:26;;;;;;;;;;;;;;;;;;1909823;28;7013;-65
2023/05/29 00:58:24;;;;;;;;;;;;;;;;;;1908943;28;7005;-65
2023/05/29 00:59:23;;;;;;;;;;;;;;;;;;1908103;28;7009;-63
2023/05/29 01:00:21;;;;;;;;;;;;;;;;;;1906947;28;8075;-65
2023/05/29 01:01:18;;;;;;;;;;;;;;;;;;1907971;28;7096;-64
2023/05/29 01:02:16;;;;;;;;;;;;;;;;;;1905092;28;7111;-65
2023/05/29 01:03:18;;;;;;;;;;;;;;;;;;1907303;28;7128;-64
2023/05/29 01:04:16;;;;;;;;;;;;;;;;;;1910405;28;7021;-63
2023/05/29 01:05:14;;;;;;;;;;;;;;;;;;1910685;28;7005;-64
2023/05/29 01:06:12;;;;;;;;;;;;;;;;;;1912424;28;7392;-64
2023/05/29 01:07:09;;;;;;;;;;;;;;;;;;1909777;28;7092;-64
2023/05/29 01:08:07;;;;;;;;;;;;;;;;;;1906957;28;7009;-64
2023/05/29 01:09:04;;;;;;;;;;;;;;;;;;1909800;28;7348;-65
2023/05/29 01:10:02;;;;;;;;;;;;;;;;;;1908440;28;8047;-65
2023/05/29 01:11:08;;;;;;;;;;;;;;;;;;1905168;28;8043;-65
2023/05/29 01:12:35;;;;;;;;;;;;;;;;;;1906676;28;7009;-65
2023/05/29 01:13:35;;;;;;;;;;;;;;;;;;1899663;28;7121;-64
2023/05/29 01:14:48;;;;;;;;;;;;;;;;;;1909909;28;7084;-62
2023/05/29 01:15:45;;;;;;;;;;;;;;;;;;1912528;28;7005;-64
2023/05/29 01:16:49;;;;;;;;;;;;;;;;;;1912283;28;7009;-63
2023/05/29 01:18:01;;;;;;;;;;;;;;;;;;1906434;28;7042;-65
2023/05/29 01:19:02;;;;;;;;;;;;;;;;;;1905273;28;7029;-63
2023/05/29 01:21:26;;;;;;;;;;;;;;;;;;1926876;27;6795;-65
2023/05/29 01:22:42;;;;;;;;;;;;;;;;;;1916852;28;7037;-65
2023/05/29 01:23:58;;;;;;;;;;;;;;;;;;1918393;28;7005;-63
2023/05/29 01:25:09;;;;;;;;;;;;;;;;;;1918497;28;7005;-63
2023/05/29 01:26:14;;;;;;;;;;;;;;;;;;1918660;28;7092;-64
2023/05/29 01:27:16;;;;;;;;;;;;;;;;;;1918666;28;7092;-63
2023/05/29 01:28:16;;;;;;;;;;;;;;;;;;1918541;28;7037;-62
2023/05/29 01:29:15;;;;;;;;;;;;;;;;;;1918310;28;7042;-62
2023/05/29 01:30:14;;;;;;;;;;;;;;;;;;1918520;28;7113;-64
2023/05/29 01:31:13;;;;;;;;;;;;;;;;;;1918547;28;7371;-64
2023/05/29 01:32:10;;;;;;;;;;;;;;;;;;1918483;28;7089;-64
2023/05/29 01:33:09;;;;;;;;;;;;;;;;;;1919111;28;7013;-63
2023/05/29 01:34:07;;;;;;;;;;;;;;;;;;1918547;28;7005;-64
2023/05/29 01:35:05;;;;;;;;;;;;;;;;;;1918439;28;8045;-63
2023/05/29 01:36:02;;;;;;;;;;;;;;;;;;1918447;28;7042;-62
2023/05/29 01:37:00;;;;;;;;;;;;;;;;;;1918839;28;7033;-63
2023/05/29 01:37:57;;;;;;;;;;;;;;;;;;1918902;28;7108;-64
2023/05/29 01:38:57;;;;;;;;;;;;;;;;;;1919470;28;8640;-63
2023/05/29 01:39:54;;;;;;;;;;;;;;;;;;1917547;28;7407;-65
2023/05/29 01:40:52;;;;;;;;;;;;;;;;;;1918559;28;7009;-64
2023/05/29 01:41:50;;;;;;;;;;;;;;;;;;1918495;28;7005;-63
2023/05/29 01:42:49;;;;;;;;;;;;;;;;;;1918524;28;7123;-68
2023/05/29 01:43:47;;;;;;;;;;;;;;;;;;1918294;28;7088;-64
2023/05/29 01:44:46;;;;;;;;;;;;;;;;;;1918769;28;7001;-65
2023/05/29 01:45:44;;;;;;;;;;;;;;;;;;1917943;28;8046;-62
2023/05/29 01:46:42;;;;;;;;;;;;;;;;;;1918600;28;7005;-62
2023/05/29 01:47:40;;;;;;;;;;;;;;;;;;1918501;28;7132;-64
2023/05/29 01:48:38;;;;;;;;;;;;;;;;;;1918232;28;7037;-64
2023/05/29 01:49:37;;;;;;;;;;;;;;;;;;1916822;28;7022;-66
2023/05/29 01:50:35;;;;;;;;;;;;;;;;;;1918087;28;7009;-63
2023/05/29 01:51:32;;;;;;;;;;;;;;;;;;1917916;28;7057;-65
2023/05/29 01:52:32;;;;;;;;;;;;;;;;;;1918626;28;7129;-66
2023/05/29 01:53:29;;;;;;;;;;;;;;;;;;1917935;28;7259;-65
2023/05/29 01:54:26;;;;;;;;;;;;;;;;;;1918357;28;7083;-66
2023/05/29 01:55:24;;;;;;;;;;;;;;;;;;1917758;28;7009;-65
2023/05/29 01:56:22;;;;;;;;;;;;;;;;;;1918681;28;7092;-64
2023/05/29 01:57:20;;;;;;;;;;;;;;;;;;1918356;28;7327;-66
2023/05/29 01:58:20;;;;;;;;;;;;;;;;;;1918224;28;7368;-64
2023/05/29 01:59:17;;;;;;;;;;;;;;;;;;1918427;28;7073;-66
2023/05/29 02:00:16;;;;;;;;;;;;;;;;;;1918817;28;7108;-63
2023/05/29 02:01:14;;;;;;;;;;;;;;;;;;1919057;28;8112;-65
2023/05/29 02:02:12;;;;;;;;;;;;;;;;;;1918655;28;7050;-64
2023/05/29 02:03:09;;;;;;;;;;;;;;;;;;1918194;28;7046;-66
2023/05/29 02:04:10;;;;;;;;;;;;;;;;;;1916015;28;7024;-66
2023/05/29 02:05:08;;;;;;;;;;;;;;;;;;1918664;28;7021;-65
2023/05/29 02:06:06;;;;;;;;;;;;;;;;;;1918551;28;8007;-64
2023/05/29 02:07:04;;;;;;;;;;;;;;;;;;1918805;28;7532;-65
2023/05/29 02:08:02;;;;;;;;;;;;;;;;;;1918479;28;7244;-63
2023/05/29 02:08:59;;;;;;;;;;;;;;;;;;1916482;28;8031;-63
2023/05/29 02:09:57;;;;;;;;;;;;;;;;;;1915633;28;7009;-66
2023/05/29 02:10:54;;;;;;;;;;;;;;;;;;1918339;28;7009;-65
2023/05/29 02:11:52;;;;;;;;;;;;;;;;;;1918668;28;7319;-66
2023/05/29 02:12:50;;;;;;;;;;;;;;;;;;1915964;28;7033;-65
2023/05/29 02:13:47;;;;;;;;;;;;;;;;;;1918590;28;7009;-65
2023/05/29 02:14:46;;;;;;;;;;;;;;;;;;1915870;28;7038;-63
2023/05/29 02:15:44;;;;;;;;;;;;;;;;;;1918756;28;7176;-65
2023/05/29 02:16:43;;;;;;;;;;;;;;;;;;1918240;28;8030;-65
2023/05/29 02:17:41;;;;;;;;;;;;;;;;;;1918622;28;7100;-65
2023/05/29 02:18:39;;;;;;;;;;;;;;;;;;1918454;28;7307;-66
2023/05/29 02:19:36;;;;;;;;;;;;;;;;;;1918920;28;7100;-65
2023/05/29 02:20:34;;;;;;;;;;;;;;;;;;1918280;28;7444;-64
2023/05/29 02:21:32;;;;;;;;;;;;;;;;;;1918318;28;7096;-67
2023/05/29 02:22:29;;;;;;;;;;;;;;;;;;1918401;28;7037;-64
2023/05/29 02:23:26;;;;;;;;;;;;;;;;;;1918210;28;7092;-65
2023/05/29 02:24:24;;;;;;;;;;;;;;;;;;1918189;28;7964;-64
2023/05/29 02:25:22;;;;;;;;;;;;;;;;;;1918369;28;7080;-65
2023/05/29 02:26:19;;;;;;;;;;;;;;;;;;1917816;28;7038;-64
2023/05/29 02:27:17;;;;;;;;;;;;;;;;;;1916274;28;7033;-64
2023/05/29 02:28:14;;;;;;;;;;;;;;;;;;1918101;28;8075;-64
2023/05/29 02:29:11;;;;;;;;;;;;;;;;;;1917641;28;7006;-65
2023/05/29 02:30:09;;;;;;;;;;;;;;;;;;1918032;28;7041;-64
2023/05/29 02:31:07;;;;;;;;;;;;;;;;;;1918581;28;7030;-63
2023/05/29 02:32:04;;;;;;;;;;;;;;;;;;1916325;28;7088;-65
2023/05/29 02:33:02;;;;;;;;;;;;;;;;;;1912881;28;7112;-66
2023/05/29 02:34:00;;;;;;;;;;;;;;;;;;1913192;28;7088;-64
2023/05/29 02:34:57;;;;;;;;;;;;;;;;;;1913233;28;7042;-65
2023/05/29 02:35:55;;;;;;;;;;;;;;;;;;1914116;28;7912;-67
2023/05/29 02:36:52;;;;;;;;;;;;;;;;;;1913232;28;7091;-64
2023/05/29 02:37:50;;;;;;;;;;;;;;;;;;1913586;28;7088;-64
2023/05/29 02:38:48;;;;;;;;;;;;;;;;;;1911266;28;7013;-66
2023/05/29 02:39:45;;;;;;;;;;;;;;;;;;1913638;28;7089;-64
2023/05/29 02:40:42;;;;;;;;;;;;;;;;;;1913776;28;7112;-63
2023/05/29 02:41:40;;;;;;;;;;;;;;;;;;1913583;28;7001;-64
2023/05/29 02:42:37;;;;;;;;;;;;;;;;;;1914148;28;7009;-66
2023/05/29 02:43:35;;;;;;;;;;;;;;;;;;1913285;28;7005;-66
2023/05/29 02:44:32;;;;;;;;;;;;;;;;;;1913351;28;8111;-64
2023/05/29 02:45:30;;;;;;;;;;;;;;;;;;1911259;28;7124;-64
2023/05/29 02:46:27;;;;;;;;;;;;;;;;;;1913231;28;7029;-65
2023/05/29 02:47:24;;;;;;;;;;;;;;;;;;1913283;28;7041;-64
2023/05/29 02:48:22;;;;;;;;;;;;;;;;;;1913682;28;7131;-66
2023/05/29 02:49:19;;;;;;;;;;;;;;;;;;1913788;28;7005;-65
2023/05/29 02:50:17;;;;;;;;;;;;;;;;;;1913703;28;7021;-65
2023/05/29 02:51:14;;;;;;;;;;;;;;;;;;1913624;28;7009;-66
2023/05/29 02:52:12;;;;;;;;;;;;;;;;;;1913333;28;7132;-65
2023/05/29 02:53:09;;;;;;;;;;;;;;;;;;1913782;28;7092;-65
2023/05/29 02:54:07;;;;;;;;;;;;;;;;;;1913754;28;7013;-66
2023/05/29 02:55:05;;;;;;;;;;;;;;;;;;1913598;28;7116;-64
2023/05/29 02:56:03;;;;;;;;;;;;;;;;;;1913919;28;7013;-64
2023/05/29 02:57:02;;;;;;;;;;;;;;;;;;1913755;28;7013;-66
2023/05/29 02:58:01;;;;;;;;;;;;;;;;;;1913566;28;7033;-66
2023/05/29 02:58:58;;;;;;;;;;;;;;;;;;1913575;28;7119;-66
2023/05/29 02:59:56;;;;;;;;;;;;;;;;;;1913350;28;7092;-67
2023/05/29 03:00:53;;;;;;;;;;;;;;;;;;1913429;28;7077;-65
2023/05/29 03:01:51;;;;;;;;;;;;;;;;;;1913189;28;7267;-65
2023/05/29 03:02:49;;;;;;;;;;;;;;;;;;1913873;28;7009;-63
2023/05/29 03:03:47;;;;;;;;;;;;;;;;;;1913274;28;7009;-66
2023/05/29 03:04:44;;;;;;;;;;;;;;;;;;1913212;28;7069;-64
2023/05/29 03:05:42;;;;;;;;;;;;;;;;;;1912629;28;7005;-64
2023/05/29 03:06:39;;;;;;;;;;;;;;;;;;1913050;28;7006;-64
2023/05/29 03:07:37;;;;;;;;;;;;;;;;;;1912827;28;8542;-63
2023/05/29 03:08:35;;;;;;;;;;;;;;;;;;1913437;28;7092;-65
2023/05/29 03:09:33;;;;;;;;;;;;;;;;;;1910744;28;7292;-65
2023/05/29 03:10:30;;;;;;;;;;;;;;;;;;1913096;28;7091;-66
2023/05/29 03:11:28;;;;;;;;;;;;;;;;;;1913355;28;7001;-65
2023/05/29 03:12:27;;;;;;;;;;;;;;;;;;1913160;28;7380;-63
2023/05/29 03:13:25;;;;;;;;;;;;;;;;;;1913277;28;7132;-64
2023/05/29 03:14:23;;;;;;;;;;;;;;;;;;1912633;28;7128;-64
2023/05/29 03:15:21;;;;;;;;;;;;;;;;;;1913449;28;8161;-64
2023/05/29 03:16:18;;;;;;;;;;;;;;;;;;1913660;28;7061;-65
2023/05/29 03:17:16;;;;;;;;;;;;;;;;;;1912989;28;7093;-64
2023/05/29 03:18:13;;;;;;;;;;;;;;;;;;1913274;28;7005;-65
2023/05/29 03:19:10;;;;;;;;;;;;;;;;;;1913368;28;7100;-64
2023/05/29 03:20:08;;;;;;;;;;;;;;;;;;1913332;28;7144;-65
2023/05/29 03:21:06;;;;;;;;;;;;;;;;;;1913003;28;8179;-65
2023/05/29 03:22:04;;;;;;;;;;;;;;;;;;1912909;28;7013;-66
2023/05/29 03:23:01;;;;;;;;;;;;;;;;;;1913482;28;7069;-64
2023/05/29 03:23:59;;;;;;;;;;;;;;;;;;1913480;28;7037;-65
2023/05/29 03:24:57;;;;;;;;;;;;;;;;;;1913466;28;7009;-65
2023/05/29 03:25:54;;;;;;;;;;;;;;;;;;1913171;28;7316;-64
2023/05/29 03:26:52;;;;;;;;;;;;;;;;;;1912858;28;7013;-67
2023/05/29 03:27:50;;;;;;;;;;;;;;;;;;1913058;28;7312;-64
2023/05/29 03:28:47;;;;;;;;;;;;;;;;;;1912076;28;7077;-64
2023/05/29 03:29:45;;;;;;;;;;;;;;;;;;1913800;28;7096;-66
2023/05/29 03:30:42;;;;;;;;;;;;;;;;;;1913239;28;7312;-66
2023/05/29 03:31:39;;;;;;;;;;;;;;;;;;1913081;28;7095;-65
2023/05/29 03:32:37;;;;;;;;;;;;;;;;;;1913069;28;7045;-65
2023/05/29 03:33:37;;;;;;;;;;;;;;;;;;1913228;28;7041;-65
2023/05/29 03:34:35;;;;;;;;;;;;;;;;;;1912827;28;8488;-63
2023/05/29 03:35:33;;;;;;;;;;;;;;;;;;1912947;28;7252;-64
2023/05/29 03:36:31;;;;;;;;;;;;;;;;;;1913386;28;7017;-64
2023/05/29 03:37:29;;;;;;;;;;;;;;;;;;1913549;28;7128;-64
2023/05/29 03:38:28;;;;;;;;;;;;;;;;;;1913403;28;7113;-65
2023/05/29 03:39:25;;;;;;;;;;;;;;;;;;1912771;28;8012;-65
2023/05/29 03:40:23;;;;;;;;;;;;;;;;;;1913188;28;7050;-64
2023/05/29 03:41:20;;;;;;;;;;;;;;;;;;1913020;28;7013;-65
2023/05/29 03:42:18;;;;;;;;;;;;;;;;;;1913088;28;7112;-64
2023/05/29 03:43:15;;;;;;;;;;;;;;;;;;1913494;28;7331;-65
2023/05/29 03:44:12;;;;;;;;;;;;;;;;;;1912366;28;7009;-64
2023/05/29 03:45:10;;;;;;;;;;;;;;;;;;1912810;28;8087;-64
2023/05/29 03:46:08;;;;;;;;;;;;;;;;;;1911009;28;7005;-65
2023/05/29 03:47:05;;;;;;;;;;;;;;;;;;1910380;28;7096;-65
2023/05/29 03:48:03;;;;;;;;;;;;;;;;;;1910230;28;7087;-66
2023/05/29 03:49:00;;;;;;;;;;;;;;;;;;1913026;28;7108;-64
2023/05/29 03:49:58;;;;;;;;;;;;;;;;;;1913384;28;7009;-65
2023/05/29 03:50:55;;;;;;;;;;;;;;;;;;1913664;28;7116;-66
2023/05/29 03:51:52;;;;;;;;;;;;;;;;;;1912917;28;8026;-66
2023/05/29 03:52:50;;;;;;;;;;;;;;;;;;1913160;28;7109;-65
2023/05/29 03:53:47;;;;;;;;;;;;;;;;;;1913165;28;7348;-65
2023/05/29 03:54:45;;;;;;;;;;;;;;;;;;1913484;28;7046;-65
2023/05/29 03:55:42;;;;;;;;;;;;;;;;;;1911719;28;7176;-64
2023/05/29 03:56:40;;;;;;;;;;;;;;;;;;1912816;28;8106;-65
2023/05/29 03:57:37;;;;;;;;;;;;;;;;;;1911976;28;7009;-65
2023/05/29 03:58:36;;;;;;;;;;;;;;;;;;1913055;28;7041;-64
2023/05/29 03:59:34;;;;;;;;;;;;;;;;;;1911983;28;7013;-65
2023/05/29 04:00:31;;;;;;;;;;;;;;;;;;1910987;28;7017;-65
2023/05/29 04:01:28;;;;;;;;;;;;;;;;;;1912682;28;7134;-64
2023/05/29 04:02:26;;;;;;;;;;;;;;;;;;1911740;28;7025;-66
2023/05/29 04:03:23;;;;;;;;;;;;;;;;;;1912973;28;7049;-64
2023/05/29 04:04:21;;;;;;;;;;;;;;;;;;1912949;28;7038;-66
2023/05/29 04:05:18;;;;;;;;;;;;;;;;;;1913094;28;7013;-64
2023/05/29 04:06:16;;;;;;;;;;;;;;;;;;1910135;28;7010;-66
2023/05/29 04:07:14;;;;;;;;;;;;;;;;;;1913164;28;7042;-66
2023/05/29 04:08:13;;;;;;;;;;;;;;;;;;1912957;28;7009;-64
2023/05/29 04:09:12;;;;;;;;;;;;;;;;;;1911681;28;8099;-64
2023/05/29 04:10:10;;;;;;;;;;;;;;;;;;1912833;28;8226;-64
2023/05/29 04:11:07;;;;;;;;;;;;;;;;;;1912841;28;7005;-63
2023/05/29 04:12:05;;;;;;;;;;;;;;;;;;1912495;28;7046;-66
2023/05/29 04:13:03;;;;;;;;;;;;;;;;;;1911788;28;8019;-66
2023/05/29 04:14:00;;;;;;;;;;;;;;;;;;1912602;28;7104;-66
2023/05/29 04:14:58;;;;;;;;;;;;;;;;;;1912549;28;7105;-64
2023/05/29 04:15:55;;;;;;;;;;;;;;;;;;1912477;28;7013;-64
2023/05/29 04:16:53;;;;;;;;;;;;;;;;;;1912384;28;7049;-65
2023/05/29 04:17:50;;;;;;;;;;;;;;;;;;1912845;28;7172;-66
2023/05/29 04:18:48;;;;;;;;;;;;;;;;;;1912861;28;7013;-64
2023/05/29 04:19:45;;;;;;;;;;;;;;;;;;1913261;28;7045;-63
2023/05/29 04:20:45;;;;;;;;;;;;;;;;;;1912786;28;7123;-64
2023/05/29 04:21:43;;;;;;;;;;;;;;;;;;1912647;28;7175;-65
2023/05/29 04:22:41;;;;;;;;;;;;;;;;;;1912651;28;7113;-64
2023/05/29 04:23:38;;;;;;;;;;;;;;;;;;1912581;28;7009;-68
2023/05/29 04:24:36;;;;;;;;;;;;;;;;;;1912525;28;7017;-64
2023/05/29 04:25:34;;;;;;;;;;;;;;;;;;1913203;28;7009;-64
2023/05/29 04:26:32;;;;;;;;;;;;;;;;;;1912648;28;7092;-64
2023/05/29 04:27:32;;;;;;;;;;;;;;;;;;1912294;28;7021;-63
2023/05/29 04:28:29;;;;;;;;;;;;;;;;;;1912215;28;7005;-64
2023/05/29 04:29:26;;;;;;;;;;;;;;;;;;1912741;28;7108;-64
2023/05/29 04:30:24;;;;;;;;;;;;;;;;;;1912038;28;7041;-64
2023/05/29 04:31:22;;;;;;;;;;;;;;;;;;1911592;28;7052;-62
2023/05/29 04:32:20;;;;;;;;;;;;;;;;;;1913140;28;7112;-66
2023/05/29 04:33:18;;;;;;;;;;;;;;;;;;1913125;28;7144;-65
2023/05/29 04:34:16;;;;;;;;;;;;;;;;;;1912690;28;7204;-64
2023/05/29 04:35:13;;;;;;;;;;;;;;;;;;1912575;28;7005;-65
2023/05/29 04:36:11;;;;;;;;;;;;;;;;;;1912686;28;8029;-64
2023/05/29 04:37:08;;;;;;;;;;;;;;;;;;1913027;28;7005;-65
2023/05/29 04:38:05;;;;;;;;;;;;;;;;;;1912969;28;7009;-64
2023/05/29 04:39:03;;;;;;;;;;;;;;;;;;1912674;28;7069;-63
2023/05/29 04:40:04;;;;;;;;;;;;;;;;;;1913092;28;7339;-64
2023/05/29 04:41:02;;;;;;;;;;;;;;;;;;1912666;28;8123;-64
2023/05/29 04:42:00;;;;;;;;;;;;;;;;;;1911077;28;7060;-63
2023/05/29 04:43:00;;;;;;;;;;;;;;;;;;1912968;28;7033;-64
2023/05/29 04:43:58;;;;;;;;;;;;;;;;;;1911760;28;7021;-65
2023/05/29 04:44:55;;;;;;;;;;;;;;;;;;1912770;28;7124;-63
2023/05/29 04:45:53;;;;;;;;;;;;;;;;;;1911182;28;7029;-64
2023/05/29 04:46:51;;;;;;;;;;;;;;;;;;1912581;28;7092;-65
2023/05/29 04:47:49;;;;;;;;;;;;;;;;;;1912937;28;7109;-64
2023/05/29 04:48:47;;;;;;;;;;;;;;;;;;1912812;28;8051;-64
2023/05/29 04:49:49;;;;;;;;;;;;;;;;;;1912568;28;7124;-66
2023/05/29 04:50:48;;;;;;;;;;;;;;;;;;1912818;28;7034;-66
2023/05/29 04:51:46;;;;;;;;;;;;;;;;;;1912559;28;7096;-63
2023/05/29 04:52:44;;;;;;;;;;;;;;;;;;1911548;28;7033;-64
2023/05/29 04:53:41;;;;;;;;;;;;;;;;;;1911598;28;7017;-64
2023/05/29 04:54:39;;;;;;;;;;;;;;;;;;1912489;28;7049;-65
2023/05/29 04:55:36;;;;;;;;;;;;;;;;;;1912199;28;7013;-65
2023/05/29 04:56:34;;;;;;;;;;;;;;;;;;1912279;28;8038;-64
2023/05/29 04:57:31;;;;;;;;;;;;;;;;;;1912595;28;7331;-63
2023/05/29 04:58:29;;;;;;;;;;;;;;;;;;1912443;28;7014;-66
2023/05/29 04:59:26;;;;;;;;;;;;;;;;;;1912250;28;7092;-65
2023/05/29 05:00:25;;;;;;;;;;;;;;;;;;1912493;28;7008;-65
2023/05/29 05:01:23;;;;;;;;;;;;;;;;;;1912861;28;7013;-64
2023/05/29 05:02:20;;;;;;;;;;;;;;;;;;1913169;28;7025;-65
2023/05/29 05:03:18;;;;;;;;;;;;;;;;;;1912643;28;7009;-65
2023/05/29 05:04:15;;;;;;;;;;;;;;;;;;1912870;28;7057;-64
2023/05/29 05:05:13;;;;;;;;;;;;;;;;;;1912860;28;7042;-65
2023/05/29 05:06:12;;;;;;;;;;;;;;;;;;1912949;28;7123;-64
2023/05/29 05:07:10;;;;;;;;;;;;;;;;;;1912693;28;7042;-66
2023/05/29 05:08:07;;;;;;;;;;;;;;;;;;1919359;28;7025;-64
2023/05/29 05:09:04;;;;;;;;;;;;;;;;;;1919403;28;7104;-64
2023/05/29 05:10:02;;;;;;;;;;;;;;;;;;1913730;28;7112;-65
2023/05/29 05:11:00;;;;;;;;;;;;;;;;;;1912773;28;7013;-65
2023/05/29 05:11:58;;;;;;;;;;;;;;;;;;1912690;28;7041;-63
2023/05/29 05:12:55;;;;;;;;;;;;;;;;;;1912805;28;7175;-66
2023/05/29 05:13:53;;;;;;;;;;;;;;;;;;1913049;28;7073;-65
2023/05/29 05:14:50;;;;;;;;;;;;;;;;;;1912742;28;8045;-66
2023/05/29 05:15:48;;;;;;;;;;;;;;;;;;1912959;28;7101;-65
2023/05/29 05:16:45;;;;;;;;;;;;;;;;;;1912685;28;7116;-64
2023/05/29 05:17:43;;;;;;;;;;;;;;;;;;1912196;28;7359;-66
2023/05/29 05:18:40;;;;;;;;;;;;;;;;;;1912124;28;7013;-64
2023/05/29 05:19:37;;;;;;;;;;;;;;;;;;1910109;28;7046;-65
2023/05/29 05:20:35;;;;;;;;;;;;;;;;;;1912638;28;7008;-66
2023/05/29 05:21:33;;;;;;;;;;;;;;;;;;1912342;28;7924;-65
2023/05/29 05:22:30;;;;;;;;;;;;;;;;;;1912995;28;7013;-65
2023/05/29 05:23:28;;;;;;;;;;;;;;;;;;1912457;28;7320;-65
2023/05/29 05:24:25;;;;;;;;;;;;;;;;;;1912802;28;8027;-64
2023/05/29 05:25:23;;;;;;;;;;;;;;;;;;1912705;28;7013;-65
2023/05/29 05:26:20;;;;;;;;;;;;;;;;;;1913072;28;7099;-65
2023/05/29 05:27:17;;;;;;;;;;;;;;;;;;1912139;28;7009;-65
2023/05/29 05:28:15;;;;;;;;;;;;;;;;;;1912634;28;7006;-65
2023/05/29 05:29:13;;;;;;;;;;;;;;;;;;1911809;28;7009;-65
2023/05/29 05:30:11;;;;;;;;;;;;;;;;;;1912488;28;7092;-64
2023/05/29 05:31:08;;;;;;;;;;;;;;;;;;1912807;28;7005;-64
2023/05/29 05:32:06;;;;;;;;;;;;;;;;;;1912632;28;7041;-63
2023/05/29 05:33:04;;;;;;;;;;;;;;;;;;1912270;28;7133;-64
2023/05/29 05:34:01;;;;;;;;;;;;;;;;;;1912699;28;7041;-63
2023/05/29 05:34:59;;;;;;;;;;;;;;;;;;1912396;28;7001;-64
2023/05/29 05:35:56;;;;;;;;;;;;;;;;;;1910007;28;8102;-66
2023/05/29 05:36:54;;;;;;;;;;;;;;;;;;1912886;28;7344;-65
2023/05/29 05:37:51;;;;;;;;;;;;;;;;;;1911556;28;7138;-66
2023/05/29 05:38:49;;;;;;;;;;;;;;;;;;1910958;28;7066;-65
2023/05/29 05:39:46;;;;;;;;;;;;;;;;;;1912685;28;7009;-67
2023/05/29 05:40:44;;;;;;;;;;;;;;;;;;1912209;28;7116;-67
2023/05/29 05:41:42;;;;;;;;;;;;;;;;;;1912635;28;8012;-67
2023/05/29 05:42:39;;;;;;;;;;;;;;;;;;1912961;28;7017;-66
2023/05/29 05:43:37;;;;;;;;;;;;;;;;;;1912324;28;7096;-65
2023/05/29 05:44:34;;;;;;;;;;;;;;;;;;1912160;28;7002;-65
2023/05/29 05:45:32;;;;;;;;;;;;;;;;;;1911580;28;7025;-64
2023/05/29 05:46:29;;;;;;;;;;;;;;;;;;1912302;28;7119;-65
2023/05/29 05:47:29;;;;;;;;;;;;;;;;;;1912101;28;7092;-67
2023/05/29 05:48:27;;;;;;;;;;;;;;;;;;1912104;28;7041;-64
2023/05/29 05:49:24;;;;;;;;;;;;;;;;;;1910021;28;7014;-65
2023/05/29 05:50:21;;;;;;;;;;;;;;;;;;1912110;28;7005;-66
2023/05/29 05:51:19;;;;;;;;;;;;;;;;;;1912306;28;7021;-65
2023/05/29 05:52:17;;;;;;;;;;;;;;;;;;1919055;28;7041;-65
2023/05/29 05:53:14;;;;;;;;;;;;;;;;;;1919042;28;7005;-64
2023/05/29 05:54:12;;;;;;;;;;;;;;;;;;1912901;28;7092;-65
2023/05/29 05:55:09;;;;;;;;;;;;;;;;;;1912312;28;7013;-66
2023/05/29 05:56:06;;;;;;;;;;;;;;;;;;1910938;28;7005;-64
2023/05/29 05:57:04;;;;;;;;;;;;;;;;;;1912384;28;7092;-66
2023/05/29 05:58:01;;;;;;;;;;;;;;;;;;1912600;28;7005;-65
2023/05/29 05:58:59;;;;;;;;;;;;;;;;;;1911881;28;7088;-64
2023/05/29 05:59:56;;;;;;;;;;;;;;;;;;1912286;28;7001;-65
2023/05/29 06:00:54;;;;;;;;;;;;;;;;;;1912296;28;7112;-65
2023/05/29 06:01:51;;;;;;;;;;;;;;;;;;1912146;28;7009;-66
2023/05/29 06:02:49;;;;;;;;;;;;;;;;;;1912529;28;8114;-64
2023/05/29 06:03:46;;;;;;;;;;;;;;;;;;1912874;28;8054;-66
2023/05/29 06:04:44;;;;;;;;;;;;;;;;;;1912306;28;7041;-66
2023/05/29 06:05:41;;;;;;;;;;;;;;;;;;1912069;28;7006;-64
2023/05/29 06:06:39;;;;;;;;;;;;;;;;;;1912509;28;7001;-65
2023/05/29 06:07:37;;;;;;;;;;;;;;;;;;1912682;28;7064;-66
2023/05/29 06:08:35;;;;;;;;;;;;;;;;;;1913873;28;7274;-65
2023/05/29 06:09:32;;;;;;;;;;;;;;;;;;1919495;28;7096;-66
2023/05/29 06:10:30;;;;;;;;;;;;;;;;;;1920897;28;7117;-64
2023/05/29 06:11:27;;;;;;;;;;;;;;;;;;1914025;28;7402;-65
2023/05/29 06:12:24;;;;;;;;;;;;;;;;;;1913022;28;7101;-65
2023/05/29 06:13:22;;;;;;;;;;;;;;;;;;1913622;28;7179;-65
2023/05/29 06:14:19;;;;;;;;;;;;;;;;;;1913783;28;7025;-65
2023/05/29 06:15:17;;;;;;;;;;;;;;;;;;1913644;28;7112;-65
2023/05/29 06:16:14;;;;;;;;;;;;;;;;;;1914113;28;7009;-66
2023/05/29 06:17:11;;;;;;;;;;;;;;;;;;1914307;28;7095;-64
2023/05/29 06:18:09;;;;;;;;;;;;;;;;;;1913968;28;7073;-64
2023/05/29 06:19:06;;;;;;;;;;;;;;;;;;1913808;28;7009;-64
2023/05/29 06:20:10;;;;;;;;;;;;;;;;;;1914116;28;7334;-64
2023/05/29 06:21:09;;;;;;;;;;;;;;;;;;1913890;28;7323;-66
2023/05/29 06:22:06;;;;;;;;;;;;;;;;;;1914087;28;7120;-63
2023/05/29 06:23:04;;;;;;;;;;;;;;;;;;1912655;28;7113;-64
2023/05/29 06:24:01;;;;;;;;;;;;;;;;;;1914261;28;7025;-63
2023/05/29 06:24:59;;;;;;;;;;;;;;;;;;1913853;28;7070;-65
2023/05/29 06:26:00;;;;;;;;;;;;;;;;;;1913734;28;7009;-65
2023/05/29 06:26:58;;;;;;;;;;;;;;;;;;1914097;28;7138;-65
2023/05/29 06:27:55;;;;;;;;;;;;;;;;;;1911144;28;7129;-65
2023/05/29 06:28:53;;;;;;;;;;;;;;;;;;1910245;28;7112;-65
2023/05/29 06:29:50;;;;;;;;;;;;;;;;;;1913949;28;8051;-65
2023/05/29 06:30:47;;;;;;;;;;;;;;;;;;1914560;28;7009;-65
2023/05/29 06:31:45;;;;;;;;;;;;;;;;;;1914611;28;7025;-62
2023/05/29 06:32:42;;;;;;;;;;;;;;;;;;1913948;28;7134;-65
2023/05/29 06:33:40;;;;;;;;;;;;;;;;;;1913902;28;7005;-64
2023/05/29 06:34:37;;;;;;;;;;;;;;;;;;1913112;28;7068;-63
2023/05/29 06:35:35;;;;;;;;;;;;;;;;;;1913941;28;7045;-63
2023/05/29 06:36:32;;;;;;;;;;;;;;;;;;1913568;28;7001;-65
2023/05/29 06:37:30;;;;;;;;;;;;;;;;;;1913918;28;7037;-64
2023/05/29 06:38:27;;;;;;;;;;;;;;;;;;1913904;28;7013;-63
2023/05/29 06:39:25;;;;;;;;;;;;;;;;;;1913583;28;7010;-65
2023/05/29 06:40:22;;;;;;;;;;;;;;;;;;1913569;28;7073;-63
2023/05/29 06:41:20;;;;;;;;;;;;;;;;;;1913996;28;7116;-65
2023/05/29 06:42:18;;;;;;;;;;;;;;;;;;1913568;28;8478;-65
2023/05/29 06:43:15;;;;;;;;;;;;;;;;;;1913177;28;7976;-64
2023/05/29 06:44:12;;;;;;;;;;;;;;;;;;1913277;28;8120;-64
2023/05/29 06:45:13;;;;;;;;;;;;;;;;;;1913901;28;7132;-65